Nearby METAR Reports

 

KMLE - Omaha/Millard, Nebraska, USA
Distance from station: NE 1mi, 2km
Updated: Sun, 10-Dec-2017 7:35pm CST
Clear
Clear
 Wind from calm
Wind: Calm
Temperature: 36°F , 2°C
Dew Point: 27°F , -3°C
Humidity: 70%
Barometer: 30.10 inHg , 1019.3 hPa
Clouds: Clear
Visibility: 10 miles , 16 km
2017/12/11 01:35 KMLE 110135Z AUTO 00000KT 10SM CLR 02/M03 A3010 RMK AO2 T00221032
KOFF - Offutt Afb/Belle, Nebraska, USA
Distance from station: ESE 12mi, 20km
Updated: Sun, 10-Dec-2017 7:56pm CST
Few Clouds
Few Clouds
 Wind from calm
Wind: Calm
Temperature: 32°F , 0°C
Dew Point: 21°F , -6°C
Humidity: 64%
Barometer: 30.09 inHg , 1019 hPa
Clouds: Few Clouds
Visibility: 10 miles , 16 km
Cloud details: Few Clouds 14000 ft
2017/12/11 01:56 KOFF 110156Z AUTO 00000KT 10SM FEW140 00/M06 A3009 RMK AO2 SLP205 T10051059 $
 
KOMA - Omaha/Eppley, Nebraska, USA
Distance from station: NE 15mi, 24km
Updated: Sun, 10-Dec-2017 6:52pm CST
Few Clouds
Few Clouds
 Wind from SE
Wind: SE 3 mph , 6 km/h
Temperature: 39°F , 4°C
Dew Point: 25°F , -4°C
Humidity: 56%
Barometer: 30.11 inHg , 1019.6 hPa
Clouds: Few Clouds
Visibility: 10 miles , 16 km
Cloud details: Few Clouds 25000 ft
2017/12/11 00:52 KOMA 110052Z 14003KT 10SM FEW250 04/M04 A3011 RMK AO2 SLP201 T00391044
KBTA - Blair Muni, Nebraska, USA
Distance from station: N 16mi, 25km
Updated: Sun, 10-Dec-2017 7:35pm CST
Clear
Clear
 Wind from calm
Wind: Calm
Temperature: 41°F , 5°C
Dew Point: 25°F , -4°C
Humidity: 53%
Barometer: 30.09 inHg , 1019 hPa
Clouds: Clear
Visibility: 10 miles , 16 km
2017/12/11 01:35 KBTA 110135Z AUTO 00000KT 10SM CLR 05/M04 A3009 RMK AO2 T00471039
 
KCBF - Council Bluffs, Iowa, USA
Distance from station: ENE 20mi, 32km
Updated: Sun, 10-Dec-2017 7:35pm CST
Clear
Clear
 Wind from WNW
Wind: WNW 3 mph , 6 km/h
Temperature: 45°F , 7°C
Dew Point: 25°F , -4°C
Humidity: 46%
Barometer: 30.09 inHg , 1019 hPa
Clouds: Clear
Visibility: 10 miles , 16 km
2017/12/11 01:35 KCBF 110135Z AUTO 30003KT 10SM CLR 07/M04 A3009 RMK AO2
KPMV - Plattsmouth Muni, Nebraska, USA
Distance from station: SE 20mi, 32km
Updated: Sun, 10-Dec-2017 7:35pm CST
Clear
Clear
 Wind from WSW
Wind: WSW 5 mph , 7 km/h
Temperature: 43°F , 6°C
Wind Chill: 40°F , 4°C
Dew Point: 21°F , -6°C
Humidity: 42%
Barometer: 30.09 inHg , 1019 hPa
Clouds: Clear
Visibility: 10 miles , 16 km
2017/12/11 01:35 KPMV 110135Z AUTO 25004KT 10SM CLR 06/M06 A3009 RMK AO2 T00631056
 
KAHQ - Wahoo, Nebraska, USA
Distance from station: W 25mi, 40km
Updated: Sun, 10-Dec-2017 7:35pm CST
Clear
Clear
 Wind from WSW
Wind: WSW 6 mph , 9 km/h
Temperature: 37°F , 3°C
Wind Chill: 32°F , 0°C
Dew Point: 19°F , -7°C
Humidity: 48%
Barometer: 30.10 inHg , 1019.3 hPa
Clouds: Clear
Visibility: 10 miles , 16 km
2017/12/11 01:35 KAHQ 110135Z AUTO 24005KT 10SM CLR 03/M07 A3010 RMK AO2 T00301075
KFET - Fremont Muni Arp, Nebraska, USA
Distance from station: NW 27mi, 43km
Updated: Sun, 10-Dec-2017 7:35pm CST
Clear
Clear
 Wind from calm
Wind: Calm
Temperature: 34°F , 1°C
Dew Point: 23°F , -5°C
Humidity: 65%
Barometer: 30.09 inHg , 1019 hPa
Clouds: Clear
Visibility: 10 miles , 16 km
2017/12/11 01:35 KFET 110135Z AUTO 00000KT 10SM CLR 01/M05 A3009 RMK AO2 T00141055
 
KTQE - Tekamah, Nebraska, USA
Distance from station: N 40mi, 64km
Updated: Sun, 10-Dec-2017 7:54pm CST
Clear
Clear
 Wind from calm
Wind: Calm
Temperature: 28°F , -2°C
Dew Point: 18°F , -8°C
Humidity: 64%
Barometer: 30.09 inHg , 1019 hPa
Clouds: Clear
Visibility: 10 miles , 16 km
2017/12/11 01:54 KTQE 110154Z AUTO 00000KT 10SM CLR M02/M08 A3009 RMK AO2 SLP196 T10171078
KLNK - Lincoln, Nebraska, USA
Distance from station: SW 41mi, 65km
Updated: Sun, 10-Dec-2017 7:54pm CST
Clear
Clear
 Wind from calm
Wind: Calm
Temperature: 30°F , -1°C
Dew Point: 18°F , -8°C
Humidity: 59%
Barometer: 30.12 inHg , 1020 hPa
Clouds: Clear
Visibility: 10 miles , 16 km
2017/12/11 01:54 KLNK 110154Z 00000KT 10SM CLR M01/M08 A3012 RMK AO2 SLP211 T10111083
 
KAFK - Nebraska City, Nebraska, USA
Distance from station: SSE 43mi, 70km
Updated: Sun, 10-Dec-2017 7:35pm CST
Clear
Clear
 Wind from WNW
Wind: WNW 7 mph , 11 km/h
Temperature: 45°F , 7°C
Wind Chill: 41°F , 5°C
Dew Point: 23°F , -5°C
Humidity: 42%
Barometer: 30.11 inHg , 1019.6 hPa
Clouds: Clear
Visibility: 10 miles , 16 km
2017/12/11 01:35 KAFK 110135Z AUTO 30006KT 10SM CLR 07/M05 A3011 RMK AO2 T00671055
KRDK - Red Oak, Iowa, USA
Distance from station: ESE 47mi, 75km
Updated: Sun, 10-Dec-2017 7:35pm CST
Mostly cloudy
Mostly cloudy
 Wind from calm
Wind: Calm
Temperature: 28°F , -2°C
Dew Point: 21°F , -6°C
Humidity: 74%
Barometer: 30.10 inHg , 1019.3 hPa
Clouds: Mostly cloudy
Visibility: 10 miles , 16 km
Cloud details: Mostly cloudy 300 ft
2017/12/11 01:35 KRDK 110135Z AUTO 00000KT 10SM BKN003 M02/M06 A3010 RMK AO2
 
KSDA - Shenandoah Muni, Iowa, USA
Distance from station: SE 48mi, 77km
Updated: Sun, 10-Dec-2017 7:35pm CST
Clear
Clear
 Wind from calm
Wind: Calm
Temperature: 32°F , 0°C
Dew Point: 23°F , -5°C
Humidity: 69%
Barometer: 30.11 inHg , 1019.6 hPa
Clouds: Clear
Visibility: 10 miles , 16 km
2017/12/11 01:35 KSDA 110135Z AUTO 00000KT 10SM CLR 00/M05 A3011 RMK AO2
KHNR - Harlan Muni, Iowa, USA
Distance from station: NE 49mi, 80km
Updated: Sun, 10-Dec-2017 7:35pm CST
Clear
Clear
 Wind from calm
Wind: Calm
Temperature: 30°F , -1°C
Dew Point: 21°F , -6°C
Humidity: 69%
Barometer: 30.12 inHg , 1020 hPa
Clouds: Clear
Visibility: 10 miles , 16 km
2017/12/11 01:35 KHNR 110135Z AUTO 00000KT 10SM CLR M01/M06 A3012 RMK AO2